Time;durP1;ratioP1;P1;durP2;ratioP2;P2;SDS_P1;SDS_P2;PMS_P1;PMS_P2;Temp;Humidity;BMP_temperature;BMP_pressure;BME280_temperature;BME280_humidity;BME280_pressure;Samples;Min_cycle;Max_cycle;Signal;HPM_P1;HPM_P2
2021/11/08 00:01:01;;;;;;;;;;;;;;;9.21;77.85;101858.08;1952301;73;20112;-58
2021/11/08 00:03:35;;;;;;;;;;;;;;;9.21;77.78;101857.22;1952270;73;20116;-58
2021/11/08 00:06:05;;;;;;;;;;;;;;;9.20;77.72;101861.62;1952206;73;20120;-58
2021/11/08 00:08:33;;;;;;;;;;;;;;;9.19;77.67;101859.86;1952200;73;20117;-59
2021/11/08 00:11:01;;;;;;;;;;;;;;;9.19;77.63;101865.12;1952102;73;20120;-59
2021/11/08 00:13:29;;;;;;;;;;;;;;;9.18;77.66;101860.74;1952218;73;20158;-59
2021/11/08 00:16:12;;;;;;;;;;;;;;;9.15;77.58;101863.44;1952204;73;20170;-58
2021/11/08 00:21:08;;;;;;;;;;;;;;;9.07;77.83;101851.73;1952345;73;20142;-58
2021/11/08 00:23:37;;;;;;;;;;;;;;;9.04;77.95;101850.91;1952262;73;20107;-59
2021/11/08 00:26:05;;;;;;;;;;;;;;;8.99;78.06;101841.77;1952228;73;20417;-59
2021/11/08 00:28:33;;;;;;;;;;;;;;;8.95;78.35;101839.22;1952219;73;20147;-59
2021/11/08 00:31:01;;;;;;;;;;;;;;;8.91;78.43;101834.88;1952236;73;20112;-58
2021/11/08 00:33:29;;;;;;;;;;;;;;;8.91;78.39;101834.88;1952198;73;20155;-59
2021/11/08 00:35:58;;;;;;;;;;;;;;;8.93;78.30;101829.16;1952037;73;20108;-60
2021/11/08 00:38:26;;;;;;;;;;;;;;;8.95;78.11;101832.20;1951967;73;20151;-58
2021/11/08 00:40:54;;;;;;;;;;;;;;;8.97;77.93;101839.61;1952097;73;20382;-58
2021/11/08 00:43:22;;;;;;;;;;;;;;;8.99;77.88;101836.97;1952164;73;20351;-58
2021/11/08 00:45:51;;;;;;;;;;;;;;;8.96;77.97;101838.31;1952144;73;20116;-58
2021/11/08 00:48:21;;;;;;;;;;;;;;;8.95;77.97;101839.22;1952143;73;20386;-58
2021/11/08 00:50:51;;;;;;;;;;;;;;;8.94;78.07;101834.39;1952341;73;20143;-58
2021/11/08 00:53:19;;;;;;;;;;;;;;;8.92;78.35;101836.17;1952159;73;20155;-58
2021/11/08 00:55:48;;;;;;;;;;;;;;;8.94;78.33;101834.39;1952143;73;20159;-59
2021/11/08 00:58:25;;;;;;;;;;;;;;;8.96;78.35;101825.19;1952134;73;20362;-58
2021/11/08 01:00:50;;;;;;;;;;;;;;;8.96;78.62;101825.19;1952108;73;20142;-58
2021/11/08 01:03:40;;;;;;;;;;;;;;;8.94;78.55;101816.45;1884130;76;20400;-58
2021/11/08 01:06:09;;;;;;;;;;;;;;;8.89;78.54;101812.15;1884119;76;20109;-58
2021/11/08 01:08:37;;;;;;;;;;;;;;;8.87;78.66;101811.31;1884138;76;20159;-58
2021/11/08 01:11:05;;;;;;;;;;;;;;;8.87;78.57;101799.91;1884148;76;20121;-58
2021/11/08 01:13:33;;;;;;;;;;;;;;;8.87;78.50;101790.72;1884083;76;20120;-59
2021/11/08 01:16:01;;;;;;;;;;;;;;;8.87;78.54;101790.30;1884156;76;20121;-58
2021/11/08 01:18:29;;;;;;;;;;;;;;;8.86;78.51;101784.61;1884106;76;20113;-58
2021/11/08 01:20:57;;;;;;;;;;;;;;;8.88;78.32;101794.64;1884182;76;20153;-58
2021/11/08 01:23:30;;;;;;;;;;;;;;;8.88;78.20;101789.39;1884148;76;20124;-58
2021/11/08 01:26:01;;;;;;;;;;;;;;;8.91;78.16;101800.73;1883534;76;20117;-59
2021/11/08 01:28:48;;;;;;;;;;;;;;;8.94;78.10;101804.64;1884072;76;20109;-59
2021/11/08 01:31:00;;;;;;;;;;;;;;;8.97;78.05;101803.30;1881395;76;20125;-59
2021/11/08 01:33:29;;;;;;;;;;;;;;;8.97;78.07;101795.41;1884133;76;20159;-59
2021/11/08 01:36:09;;;;;;;;;;;;;;;8.98;77.97;101791.88;1884296;76;20104;-58
2021/11/08 01:38:36;;;;;;;;;;;;;;;9.01;77.99;101795.78;1884057;76;20117;-59
2021/11/08 01:40:56;;;;;;;;;;;;;;;9.00;78.02;101795.34;1882610;76;20195;-58
2021/11/08 01:43:24;;;;;;;;;;;;;;;9.04;78.03;101797.91;1884155;76;20117;-58
2021/11/08 01:45:52;;;;;;;;;;;;;;;9.07;78.06;101794.36;1884137;76;20191;-58
2021/11/08 01:48:20;;;;;;;;;;;;;;;9.10;77.92;101787.75;1884294;76;20109;-59
2021/11/08 01:50:49;;;;;;;;;;;;;;;9.11;77.89;101788.19;1884076;76;20116;-59
2021/11/08 01:53:19;;;;;;;;;;;;;;;9.11;78.05;101789.50;1884038;76;20133;-59
2021/11/08 01:55:46;;;;;;;;;;;;;;;9.13;77.98;101780.25;1884076;76;20344;-59
2021/11/08 01:58:14;;;;;;;;;;;;;;;9.14;77.88;101776.29;1884152;76;20116;-58
2021/11/08 02:00:42;;;;;;;;;;;;;;;9.15;77.78;101787.23;1884095;76;20156;-59
2021/11/08 02:03:11;;;;;;;;;;;;;;;9.16;77.73;101792.89;1884038;76;20108;-59
2021/11/08 02:05:39;;;;;;;;;;;;;;;9.16;77.70;101795.98;1884241;76;20117;-59
2021/11/08 02:08:07;;;;;;;;;;;;;;;9.14;77.66;101798.63;1884115;76;20104;-59
2021/11/08 02:10:35;;;;;;;;;;;;;;;9.14;77.61;101805.19;1884155;76;20146;-59
2021/11/08 02:13:04;;;;;;;;;;;;;;;9.13;77.57;101797.33;1884119;76;20124;-59
2021/11/08 02:15:32;;;;;;;;;;;;;;;9.13;77.53;101798.22;1884082;76;20108;-59
2021/11/08 02:18:00;;;;;;;;;;;;;;;9.12;77.43;101799.09;1884212;76;20104;-60
2021/11/08 02:20:30;;;;;;;;;;;;;;;9.10;77.41;101798.71;1884082;76;20253;-59
2021/11/08 02:23:00;;;;;;;;;;;;;;;9.08;77.43;101798.73;1884192;76;20116;-59
2021/11/08 02:25:28;;;;;;;;;;;;;;;9.04;77.62;101788.72;1884103;76;20112;-58
2021/11/08 02:27:57;;;;;;;;;;;;;;;9.05;77.62;101792.20;1884112;76;20159;-58
2021/11/08 02:30:28;;;;;;;;;;;;;;;9.02;77.70;101794.90;1884108;76;20117;-58
2021/11/08 02:32:57;;;;;;;;;;;;;;;9.03;77.75;101797.93;1883987;76;20151;-58
2021/11/08 02:35:25;;;;;;;;;;;;;;;9.06;77.69;101792.19;1884120;76;20359;-58
2021/11/08 02:37:53;;;;;;;;;;;;;;;9.10;77.64;101799.57;1884081;76;20171;-58
2021/11/08 02:40:27;;;;;;;;;;;;;;;9.13;77.54;101806.10;1859676;76;20163;-58
2021/11/08 02:42:55;;;;;;;;;;;;;;;9.14;77.51;101797.77;1884006;76;20113;-60
2021/11/08 02:45:25;;;;;;;;;;;;;;;9.12;77.53;101795.61;1884023;76;20120;-60
2021/11/08 02:47:54;;;;;;;;;;;;;;;9.10;77.59;101791.69;1884095;76;20498;-59
2021/11/08 02:50:23;;;;;;;;;;;;;;;9.05;77.68;101784.32;1884037;76;20394;-59
2021/11/08 02:52:52;;;;;;;;;;;;;;;9.02;78.07;101789.19;1884103;76;20147;-59
2021/11/08 02:55:23;;;;;;;;;;;;;;;9.03;78.01;101779.09;1884112;76;20109;-59
2021/11/08 02:57:51;;;;;;;;;;;;;;;9.03;77.95;101769.03;1883979;76;20116;-59
2021/11/08 03:00:21;;;;;;;;;;;;;;;9.04;77.86;101769.02;1884069;76;20443;-58
2021/11/08 03:02:49;;;;;;;;;;;;;;;9.04;77.75;101761.59;1883539;76;20398;-58
2021/11/08 03:05:21;;;;;;;;;;;;;;;9.05;77.66;101763.30;1881577;76;20410;-60
2021/11/08 03:07:47;;;;;;;;;;;;;;;9.03;77.65;101762.47;1881398;76;20121;-60
2021/11/08 03:10:21;;;;;;;;;;;;;;;9.04;77.58;101758.95;1881578;76;20116;-60
2021/11/08 03:12:51;;;;;;;;;;;;;;;9.04;77.60;101762.90;1881635;76;20109;-59
2021/11/08 03:15:39;;;;;;;;;;;;;;;9.03;77.58;101757.20;1881724;76;20140;-59
2021/11/08 03:18:07;;;;;;;;;;;;;;;9.01;77.58;101760.31;1881559;76;20124;-60
2021/11/08 03:20:34;;;;;;;;;;;;;;;8.98;77.61;101758.61;1881677;76;20185;-59
2021/11/08 03:23:06;;;;;;;;;;;;;;;8.94;77.70;101749.48;1881511;76;20145;-59
2021/11/08 03:28:03;;;;;;;;;;;;;;;8.91;77.68;101751.72;1881485;76;20121;-60
2021/11/08 03:30:38;;;;;;;;;;;;;;;8.89;77.56;101745.17;1881589;76;20117;-64
2021/11/08 03:33:06;;;;;;;;;;;;;;;8.87;77.59;101738.19;1881574;76;20125;-62
2021/11/08 03:35:34;;;;;;;;;;;;;;;8.84;77.55;101744.83;1881529;76;20168;-63
2021/11/08 03:38:03;;;;;;;;;;;;;;;8.80;77.51;101741.84;1881619;76;20108;-63
2021/11/08 03:40:32;;;;;;;;;;;;;;;8.74;77.66;101741.45;1881578;76;20410;-62
2021/11/08 03:43:01;;;;;;;;;;;;;;;8.68;77.72;101738.94;1881549;76;20121;-63
2021/11/08 03:45:30;;;;;;;;;;;;;;;8.65;77.78;101735.03;1881622;76;20147;-62
2021/11/08 03:47:58;;;;;;;;;;;;;;;8.63;77.75;101735.50;1881429;76;20110;-63
2021/11/08 03:50:26;;;;;;;;;;;;;;;8.60;77.76;101740.82;1881736;76;20136;-64
2021/11/08 03:52:54;;;;;;;;;;;;;;;8.59;77.82;101745.63;1881547;76;20121;-62
2021/11/08 03:55:23;;;;;;;;;;;;;;;8.56;77.79;101739.99;1881622;76;20147;-62
2021/11/08 03:57:52;;;;;;;;;;;;;;;8.55;77.84;101738.70;1881579;76;20155;-62
2021/11/08 04:00:21;;;;;;;;;;;;;;;8.53;77.84;101727.36;1881490;76;20120;-63
2021/11/08 04:02:49;;;;;;;;;;;;;;;8.53;77.82;101722.11;1881530;76;20159;-62
2021/11/08 04:05:19;;;;;;;;;;;;;;;8.47;77.85;101726.55;1874903;76;20117;-62
2021/11/08 04:07:47;;;;;;;;;;;;;;;8.45;77.85;101723.09;1869437;77;20113;-62
2021/11/08 04:10:16;;;;;;;;;;;;;;;8.46;77.90;101726.56;1869442;77;20129;-63
2021/11/08 04:12:44;;;;;;;;;;;;;;;8.45;77.88;101729.64;1869294;77;20422;-63
2021/11/08 04:15:14;;;;;;;;;;;;;;;8.44;77.92;101725.27;1869210;77;20122;-62
2021/11/08 04:17:45;;;;;;;;;;;;;;;8.42;77.96;101724.43;1869231;77;20115;-61
2021/11/08 04:20:18;;;;;;;;;;;;;;;8.42;77.94;101724.43;1869024;77;20188;-63
2021/11/08 04:22:48;;;;;;;;;;;;;;;8.43;77.89;101720.93;1869115;77;20109;-62
2021/11/08 04:25:17;;;;;;;;;;;;;;;8.45;77.81;101719.60;1869165;77;20121;-61
2021/11/08 04:27:46;;;;;;;;;;;;;;;8.45;77.77;101720.91;1869211;77;20196;-61
2021/11/08 04:30:14;;;;;;;;;;;;;;;8.47;77.77;101721.75;1869267;77;20176;-60
2021/11/08 04:35:28;;;;;;;;;;;;;;;8.50;77.68;101719.95;1869256;77;20352;-61
2021/11/08 04:40:28;;;;;;;;;;;;;;;8.50;77.80;101714.70;1869253;77;20144;-61
2021/11/08 04:43:26;;;;;;;;;;;;;;;8.52;77.66;101717.73;1869185;77;20117;-61
2021/11/08 04:45:44;;;;;;;;;;;;;;;8.54;77.56;101723.83;1863050;77;20117;-59
2021/11/08 04:50:48;;;;;;;;;;;;;;;8.56;77.50;101728.61;1869159;77;20117;-61
2021/11/08 04:53:29;;;;;;;;;;;;;;;8.56;77.51;101727.29;1869065;77;20427;-62
2021/11/08 05:31:51;;;;;;;;;;;;;;;9.70;76.88;101755.59;1884471;76;20117;-61
2021/11/08 05:34:19;;;;;;;;;;;;;;;10.29;76.69;101750.89;1884335;76;20148;-62
2021/11/08 05:36:46;;;;;;;;;;;;;;;11.03;76.33;101751.85;1884336;76;20109;-61
2021/11/08 05:39:15;;;;;;;;;;;;;;;11.73;75.96;101745.60;1884331;76;20195;-61
2021/11/08 05:41:45;;;;;;;;;;;;;;;12.43;75.31;101744.48;1884357;76;20101;-61
2021/11/08 05:44:12;;;;;;;;;;;;;;;12.97;74.56;101748.09;1884304;76;20151;-62
2021/11/08 05:46:40;;;;;;;;;;;;;;;13.49;73.61;101760.89;1884239;76;20112;-62
2021/11/08 05:49:08;;;;;;;;;;;;;;;13.98;72.84;101759.57;1884414;76;20147;-62
2021/11/08 05:51:36;;;;;;;;;;;;;;;14.52;72.44;101761.05;1884344;76;20147;-61
2021/11/08 05:54:04;;;;;;;;;;;;;;;15.10;72.05;101763.15;1884327;76;20172;-61
2021/11/08 05:59:39;;;;;;;;;;;;;;;16.20;70.88;101762.77;1884236;76;20149;-61
2021/11/08 06:48:31;;;;;;;;;;;;;;;18.17;67.16;101751.16;1869281;77;20401;-61
2021/11/08 06:51:02;;;;;;;;;;;;;;;22.46;58.53;101721.09;1869310;76;20413;-61
2021/11/08 06:53:32;;;;;;;;;;;;;;;22.69;54.39;101720.74;1869011;77;20109;-62
2021/11/08 06:56:01;;;;;;;;;;;;;;;22.59;54.93;101714.33;1869192;77;20227;-61
2021/11/08 06:58:29;;;;;;;;;;;;;;;22.70;52.47;101724.27;1869123;77;20109;-61
2021/11/08 07:00:57;;;;;;;;;;;;;;;22.83;53.44;101712.13;1869062;77;20125;-61
2021/11/08 07:03:25;;;;;;;;;;;;;;;22.79;50.51;101710.66;1869049;77;20164;-61
2021/11/08 07:05:52;;;;;;;;;;;;;;;22.70;50.44;101701.45;1868442;76;20121;-62
2021/11/08 07:08:20;;;;;;;;;;;;;;;22.82;50.55;101697.01;1881245;76;20530;-62
2021/11/08 07:10:48;;;;;;;;;;;;;;;22.71;49.87;101697.32;1881331;76;20375;-61
2021/11/08 07:13:16;;;;;;;;;;;;;;;22.90;49.67;101706.17;1881244;76;20113;-62
2021/11/08 07:15:44;;;;;;;;;;;;;;;22.80;48.53;101705.17;1881248;76;20202;-61
2021/11/08 07:18:12;;;;;;;;;;;;;;;22.80;47.51;101696.27;1881227;76;20105;-60
2021/11/08 07:20:39;;;;;;;;;;;;;;;22.14;47.03;101699.30;1881157;76;20191;-61
2021/11/08 07:23:07;;;;;;;;;;;;;;;21.29;49.51;101704.41;1881217;76;20117;-60
2021/11/08 07:25:35;;;;;;;;;;;;;;;21.07;50.09;101705.87;1881353;76;20172;-60
2021/11/08 07:31:12;;;;;;;;;;;;;;;22.33;49.21;101682.73;1881143;76;20203;-60
2021/11/08 07:33:40;;;;;;;;;;;;;;;22.57;49.64;101692.62;1881123;75;20151;-61
2021/11/08 07:36:09;;;;;;;;;;;;;;;22.50;48.41;101699.80;1881207;76;20147;-61
2021/11/08 07:38:37;;;;;;;;;;;;;;;22.57;47.37;101709.57;1881173;76;20166;-61
2021/11/08 07:41:07;;;;;;;;;;;;;;;23.00;47.69;101708.16;1881202;76;20166;-61
2021/11/08 07:43:35;;;;;;;;;;;;;;;23.37;46.52;101710.25;1881121;76;20246;-61
2021/11/08 07:46:03;;;;;;;;;;;;;;;23.55;45.58;101708.42;1881183;76;20391;-61
2021/11/08 07:48:31;;;;;;;;;;;;;;;23.75;45.46;101700.12;1881275;76;20152;-60
2021/11/08 07:50:58;;;;;;;;;;;;;;;23.70;43.75;101708.58;1881420;76;20121;-61
2021/11/08 07:53:26;;;;;;;;;;;;;;;23.81;44.19;101695.63;1881410;76;20117;-61
2021/11/08 07:55:54;;;;;;;;;;;;;;;24.26;44.71;101704.50;1881261;76;20406;-61
2021/11/08 07:58:22;;;;;;;;;;;;;;;24.65;43.71;101696.81;1881333;76;20125;-61
2021/11/08 08:00:50;;;;;;;;;;;;;;;24.85;43.46;101694.30;1881327;76;20147;-61
2021/11/08 08:03:19;;;;;;;;;;;;;;;24.90;42.30;101701.50;1881300;76;20151;-61
2021/11/08 08:05:47;;;;;;;;;;;;;;;24.66;41.22;101704.42;1882070;76;20112;-61
2021/11/08 08:08:15;;;;;;;;;;;;;;;24.62;41.88;101689.02;1884163;76;20199;-61
2021/11/08 08:10:43;;;;;;;;;;;;;;;24.85;41.72;101692.95;1884155;76;20116;-61
2021/11/08 08:13:10;;;;;;;;;;;;;;;24.82;41.22;101687.81;1884069;76;20121;-62
2021/11/08 08:15:39;;;;;;;;;;;;;;;24.88;41.06;101685.97;1884078;76;20105;-61
2021/11/08 08:18:06;;;;;;;;;;;;;;;24.81;41.59;101676.70;1884085;76;20117;-61
2021/11/08 08:20:34;;;;;;;;;;;;;;;24.69;41.72;101669.64;1884115;76;20190;-62
2021/11/08 08:23:02;;;;;;;;;;;;;;;24.74;41.18;101675.50;1883983;76;20113;-62
2021/11/08 08:25:30;;;;;;;;;;;;;;;25.01;41.02;101681.23;1884045;76;20142;-62
2021/11/08 08:27:59;;;;;;;;;;;;;;;25.38;39.82;101688.86;1884098;76;20112;-61
2021/11/08 08:30:27;;;;;;;;;;;;;;;25.28;39.64;101678.51;1884077;76;20156;-61
2021/11/08 08:32:55;;;;;;;;;;;;;;;25.01;40.04;101671.80;1884077;76;20171;-62
2021/11/08 08:35:24;;;;;;;;;;;;;;;25.21;39.72;101682.22;1884079;76;20120;-61
2021/11/08 08:37:52;;;;;;;;;;;;;;;25.46;38.78;101679.25;1884052;76;20112;-61
2021/11/08 08:40:20;;;;;;;;;;;;;;;25.41;39.43;101688.58;1884056;76;20109;-62
2021/11/08 08:42:47;;;;;;;;;;;;;;;25.58;39.34;101684.89;1884103;76;20117;-61
2021/11/08 08:45:15;;;;;;;;;;;;;;;25.88;39.27;101675.95;1884057;76;20159;-62
2021/11/08 08:47:43;;;;;;;;;;;;;;;26.06;37.98;101669.43;1884032;76;20148;-62
2021/11/08 08:50:11;;;;;;;;;;;;;;;25.41;38.67;101668.36;1883982;76;20117;-61
2021/11/08 08:52:39;;;;;;;;;;;;;;;24.92;39.60;101660.94;1884189;76;20147;-62
2021/11/08 08:55:08;;;;;;;;;;;;;;;24.89;39.91;101663.41;1884069;76;20144;-62
2021/11/08 08:57:35;;;;;;;;;;;;;;;24.62;40.70;101676.91;1884181;76;20195;-62
2021/11/08 09:00:05;;;;;;;;;;;;;;;24.77;40.19;101667.14;1884155;76;20121;-61
2021/11/08 09:02:32;;;;;;;;;;;;;;;25.03;39.83;101659.55;1884020;76;20117;-62
2021/11/08 09:05:00;;;;;;;;;;;;;;;25.20;40.03;101654.05;1884106;76;20214;-61
2021/11/08 09:07:32;;;;;;;;;;;;;;;25.56;39.62;101652.70;1881767;75;20117;-62
2021/11/08 09:10:02;;;;;;;;;;;;;;;25.55;39.33;101644.74;1881391;76;20117;-61
2021/11/08 09:12:30;;;;;;;;;;;;;;;25.73;39.17;101634.13;1881312;76;20101;-61
2021/11/08 09:14:58;;;;;;;;;;;;;;;25.95;39.05;101612.38;1881287;76;20113;-61
2021/11/08 09:17:26;;;;;;;;;;;;;;;25.96;39.03;101646.95;1881253;76;20191;-61
2021/11/08 09:19:54;;;;;;;;;;;;;;;25.95;39.04;101633.09;1881279;76;20117;-61
2021/11/08 09:22:22;;;;;;;;;;;;;;;25.94;38.50;101628.20;1881618;76;20149;-61
2021/11/08 09:24:50;;;;;;;;;;;;;;;26.06;38.63;101630.30;1881345;76;20161;-61
2021/11/08 09:27:19;;;;;;;;;;;;;;;26.07;38.21;101626.59;1881297;76;20143;-61
2021/11/08 09:29:47;;;;;;;;;;;;;;;26.24;38.08;101629.59;1881210;76;20121;-62
2021/11/08 09:32:15;;;;;;;;;;;;;;;25.99;38.22;101629.98;1881303;76;20117;-60
2021/11/08 09:34:52;;;;;;;;;;;;;;;25.91;38.68;101634.33;1881481;76;20121;-62
2021/11/08 09:37:18;;;;;;;;;;;;;;;26.08;38.60;101629.66;1880525;76;20160;-61
2021/11/08 09:39:47;;;;;;;;;;;;;;;26.26;38.27;101619.00;1881315;76;20383;-61
2021/11/08 09:42:16;;;;;;;;;;;;;;;26.43;37.94;101612.06;1881207;76;20144;-62
2021/11/08 09:44:45;;;;;;;;;;;;;;;26.52;38.09;101602.23;1881433;76;20414;-61
2021/11/08 09:47:14;;;;;;;;;;;;;;;26.38;38.34;101604.38;1881343;76;20407;-61
2021/11/08 09:49:44;;;;;;;;;;;;;;;26.37;37.82;101607.21;1881301;76;20117;-61
2021/11/08 09:52:12;;;;;;;;;;;;;;;26.25;38.32;101601.62;1878187;75;20155;-61
2021/11/08 09:54:43;;;;;;;;;;;;;;;26.29;38.77;101601.69;1881239;76;20116;-61
2021/11/08 09:57:11;;;;;;;;;;;;;;;25.71;39.56;101605.10;1881262;76;20200;-61
2021/11/08 09:59:40;;;;;;;;;;;;;;;26.28;38.92;101612.98;1881344;76;20104;-61
2021/11/08 10:02:13;;;;;;;;;;;;;;;26.24;38.51;101614.75;1881231;76;20147;-61
2021/11/08 10:04:42;;;;;;;;;;;;;;;26.62;38.16;101619.83;1880420;76;20184;-61
2021/11/08 10:07:11;;;;;;;;;;;;;;;26.55;38.26;101617.66;1877483;76;20109;-61
2021/11/08 10:09:39;;;;;;;;;;;;;;;26.35;38.51;101617.31;1877449;76;20155;-61
2021/11/08 10:12:08;;;;;;;;;;;;;;;26.04;38.69;101612.02;1878279;76;20155;-61
2021/11/08 10:14:37;;;;;;;;;;;;;;;25.80;39.14;101620.46;1878301;76;20126;-61
2021/11/08 10:17:05;;;;;;;;;;;;;;;25.66;39.32;101612.27;1878198;76;20352;-61
2021/11/08 10:19:35;;;;;;;;;;;;;;;25.59;39.46;101598.98;1878210;76;20109;-61
2021/11/08 10:22:04;;;;;;;;;;;;;;;25.53;39.56;101607.63;1878149;76;20196;-61
2021/11/08 10:24:33;;;;;;;;;;;;;;;25.56;38.96;101591.16;1878166;76;20117;-61
2021/11/08 10:27:06;;;;;;;;;;;;;;;25.27;39.24;101603.17;1878195;76;20105;-61
2021/11/08 10:29:33;;;;;;;;;;;;;;;25.03;39.71;101596.23;1878189;76;20116;-61
2021/11/08 10:32:03;;;;;;;;;;;;;;;25.14;39.93;101593.45;1878211;76;20117;-61
2021/11/08 10:34:30;;;;;;;;;;;;;;;25.12;39.45;101593.21;1878103;76;20147;-61
2021/11/08 10:37:03;;;;;;;;;;;;;;;24.95;38.98;101604.11;1878193;76;20147;-61
2021/11/08 10:39:35;;;;;;;;;;;;;;;24.79;39.44;101587.09;1878266;76;20147;-61
2021/11/08 10:42:04;;;;;;;;;;;;;;;24.84;39.68;101596.95;1878235;76;20117;-61
2021/11/08 10:44:33;;;;;;;;;;;;;;;25.04;39.34;101592.03;1878180;76;20133;-61
2021/11/08 10:47:02;;;;;;;;;;;;;;;25.03;39.47;101592.20;1878051;76;20147;-63
2021/11/08 10:49:31;;;;;;;;;;;;;;;24.99;39.51;101574.09;1878148;76;20113;-60
2021/11/08 10:52:00;;;;;;;;;;;;;;;24.93;39.65;101588.08;1877850;76;20117;-60
2021/11/08 10:54:29;;;;;;;;;;;;;;;25.08;39.75;101582.34;1878252;76;20152;-61
2021/11/08 10:56:58;;;;;;;;;;;;;;;24.95;39.93;101590.14;1878290;76;20405;-60
2021/11/08 10:59:30;;;;;;;;;;;;;;;24.84;39.95;101576.75;1878088;76;20198;-61
2021/11/08 11:02:00;;;;;;;;;;;;;;;24.86;40.27;101582.86;1878313;76;20117;-60
2021/11/08 11:04:35;;;;;;;;;;;;;;;25.07;40.16;101582.01;1878149;76;20113;-61
2021/11/08 11:07:03;;;;;;;;;;;;;;;24.86;40.27;101572.09;1878450;76;20109;-61
2021/11/08 11:09:32;;;;;;;;;;;;;;;24.62;40.41;101574.59;1886564;76;20406;-60
2021/11/08 11:12:04;;;;;;;;;;;;;;;24.39;40.88;101575.15;1883705;76;20155;-60
2021/11/08 11:14:36;;;;;;;;;;;;;;;24.06;41.29;101561.34;1877065;75;20152;-61
2021/11/08 11:17:07;;;;;;;;;;;;;;;23.92;41.53;101557.60;1867760;77;20109;-61
2021/11/08 11:19:35;;;;;;;;;;;;;;;23.76;41.70;101569.59;1868886;76;20159;-62
2021/11/08 11:22:07;;;;;;;;;;;;;;;23.54;42.19;101569.64;1883988;76;20116;-61
2021/11/08 11:24:46;;;;;;;;;;;;;;;23.46;42.34;101571.12;1884006;76;20121;-61
2021/11/08 11:27:17;;;;;;;;;;;;;;;23.22;42.67;101562.31;1882850;76;20147;-60
2021/11/08 11:29:45;;;;;;;;;;;;;;;22.75;43.44;101554.31;1879208;76;20116;-61
2021/11/08 11:32:27;;;;;;;;;;;;;;;22.61;43.89;101549.16;1884125;76;20113;-61
2021/11/08 11:34:55;;;;;;;;;;;;;;;22.70;43.76;101555.16;1881253;76;20378;-61
2021/11/08 11:37:25;;;;;;;;;;;;;;;22.56;43.95;101553.55;1883735;76;20148;-60
2021/11/08 11:40:06;;;;;;;;;;;;;;;22.44;44.46;101552.64;1884095;76;20112;-60
2021/11/08 11:42:35;;;;;;;;;;;;;;;22.26;44.94;101562.97;1882818;76;20151;-61
2021/11/08 11:45:04;;;;;;;;;;;;;;;22.29;45.01;101569.43;1882503;76;20121;-61
2021/11/08 11:47:32;;;;;;;;;;;;;;;22.31;45.06;101575.53;1883287;76;20196;-61
2021/11/08 11:50:00;;;;;;;;;;;;;;;22.19;44.97;101581.80;1884154;76;20121;-62
2021/11/08 11:52:29;;;;;;;;;;;;;;;21.77;45.84;101581.33;1884075;76;20219;-63
2021/11/08 11:54:57;;;;;;;;;;;;;;;21.26;46.88;101569.34;1884082;76;20151;-61
2021/11/08 11:57:25;;;;;;;;;;;;;;;20.71;48.17;101574.05;1884074;76;20113;-61
2021/11/08 11:59:53;;;;;;;;;;;;;;;20.38;48.88;101563.31;1883999;76;20121;-61
2021/11/08 12:02:22;;;;;;;;;;;;;;;20.21;49.43;101569.80;1884164;76;20105;-61
2021/11/08 12:04:50;;;;;;;;;;;;;;;20.01;50.00;101570.65;1884086;76;20417;-61
2021/11/08 12:07:18;;;;;;;;;;;;;;;19.86;50.52;101560.48;1884191;76;20105;-61
2021/11/08 12:09:46;;;;;;;;;;;;;;;19.70;51.24;101567.75;1882533;76;20125;-61
2021/11/08 12:12:15;;;;;;;;;;;;;;;19.62;51.35;101562.02;1881259;76;20121;-60
2021/11/08 12:14:43;;;;;;;;;;;;;;;19.47;51.77;101567.38;1878325;76;20151;-60
2021/11/08 12:17:12;;;;;;;;;;;;;;;19.36;51.82;101575.70;1881322;76;20117;-61
2021/11/08 12:19:42;;;;;;;;;;;;;;;19.20;52.31;101567.33;1880872;76;20147;-61
2021/11/08 12:22:20;;;;;;;;;;;;;;;19.12;52.59;101571.42;1881443;76;20139;-61
2021/11/08 12:25:02;;;;;;;;;;;;;;;19.09;52.69;101577.81;1881224;76;20124;-61
2021/11/08 12:27:41;;;;;;;;;;;;;;;19.04;52.79;101579.91;1881328;76;20363;-61
2021/11/08 12:30:10;;;;;;;;;;;;;;;19.05;52.93;101578.93;1881331;76;20117;-61
2021/11/08 12:32:45;;;;;;;;;;;;;;;19.08;53.31;101577.42;1880320;76;20116;-62
2021/11/08 12:35:15;;;;;;;;;;;;;;;19.03;53.15;101575.05;1880642;76;20121;-61
2021/11/08 12:37:43;;;;;;;;;;;;;;;19.03;53.20;101573.72;1881277;76;20125;-61
2021/11/08 12:40:12;;;;;;;;;;;;;;;18.99;53.42;101571.31;1881363;76;20108;-61
2021/11/08 12:42:42;;;;;;;;;;;;;;;18.96;53.40;101563.48;1881329;76;20117;-61
2021/11/08 12:45:11;;;;;;;;;;;;;;;18.94;53.63;101569.39;1881490;76;20406;-62
2021/11/08 12:47:39;;;;;;;;;;;;;;;18.84;53.90;101565.95;1880176;76;20112;-61
2021/11/08 12:50:07;;;;;;;;;;;;;;;18.81;54.00;101568.83;1881366;76;20172;-61
2021/11/08 12:52:36;;;;;;;;;;;;;;;18.73;54.47;101579.05;1881299;76;20140;-61
2021/11/08 12:55:11;;;;;;;;;;;;;;;18.63;54.67;101573.91;1880979;76;20125;-61
2021/11/08 12:57:41;;;;;;;;;;;;;;;18.56;54.85;101571.22;1881265;76;20410;-61
2021/11/08 13:00:22;;;;;;;;;;;;;;;18.48;54.99;101567.20;1879639;76;20105;-61
2021/11/08 13:02:57;;;;;;;;;;;;;;;18.44;55.29;101571.45;1881242;76;20168;-61
2021/11/08 13:05:29;;;;;;;;;;;;;;;18.35;55.91;101570.66;1881282;76;20380;-60
2021/11/08 13:07:59;;;;;;;;;;;;;;;18.23;56.27;101571.77;1879286;76;20151;-61
2021/11/08 13:10:28;;;;;;;;;;;;;;;18.10;56.72;101570.28;1869910;76;20431;-61
2021/11/08 13:12:57;;;;;;;;;;;;;;;18.02;56.83;101576.53;1867776;77;20218;-60
2021/11/08 13:15:29;;;;;;;;;;;;;;;17.91;57.52;101577.62;1869135;77;20148;-60
2021/11/08 13:18:05;;;;;;;;;;;;;;;17.84;58.04;101574.88;1869132;77;20180;-61
2021/11/08 13:20:36;;;;;;;;;;;;;;;17.78;57.83;101579.20;1869138;77;20152;-60
2021/11/08 13:23:06;;;;;;;;;;;;;;;17.72;58.40;101567.97;1869080;77;20113;-61
2021/11/08 13:25:35;;;;;;;;;;;;;;;17.61;59.45;101560.17;1868251;76;20105;-61
2021/11/08 13:28:04;;;;;;;;;;;;;;;17.49;59.15;101560.39;1869147;77;20152;-60
2021/11/08 13:30:34;;;;;;;;;;;;;;;17.42;59.34;101566.99;1869130;77;20105;-60
2021/11/08 13:33:02;;;;;;;;;;;;;;;17.33;60.21;101578.99;1868868;77;20109;-60
2021/11/08 13:35:30;;;;;;;;;;;;;;;17.26;59.94;101581.11;1869107;77;20148;-60
2021/11/08 13:38:02;;;;;;;;;;;;;;;17.23;59.99;101583.11;1869014;76;20125;-61
2021/11/08 13:40:31;;;;;;;;;;;;;;;17.17;59.90;101586.93;1867896;77;20122;-60
2021/11/08 13:43:06;;;;;;;;;;;;;;;17.11;60.47;101584.61;1869176;77;20163;-60
2021/11/08 13:45:48;;;;;;;;;;;;;;;17.05;60.29;101589.78;1869071;77;20387;-60
2021/11/08 13:48:21;;;;;;;;;;;;;;;17.00;60.86;101597.62;1869248;77;20109;-61
2021/11/08 13:50:49;;;;;;;;;;;;;;;16.95;60.59;101589.90;1869080;77;20176;-61
2021/11/08 13:53:25;;;;;;;;;;;;;;;16.88;60.41;101581.84;1869081;77;20176;-61
2021/11/08 13:56:00;;;;;;;;;;;;;;;16.82;60.81;101577.67;1869096;77;20152;-61
2021/11/08 13:58:30;;;;;;;;;;;;;;;16.75;61.94;101577.59;1869123;77;20117;-61
2021/11/08 14:01:02;;;;;;;;;;;;;;;16.68;61.53;101582.83;1869232;77;20203;-61
2021/11/08 14:03:40;;;;;;;;;;;;;;;16.62;61.72;101580.02;1863956;76;20109;-62
2021/11/08 14:06:17;;;;;;;;;;;;;;;16.55;61.77;101579.47;1869007;77;20145;-63
2021/11/08 14:08:45;;;;;;;;;;;;;;;16.49;61.38;101582.89;1871361;76;20122;-61
2021/11/08 14:11:13;;;;;;;;;;;;;;;16.44;61.13;101587.13;1893531;76;20168;-62
2021/11/08 14:13:41;;;;;;;;;;;;;;;16.39;61.01;101586.48;1893599;76;20162;-62
2021/11/08 14:16:10;;;;;;;;;;;;;;;16.33;61.32;101582.81;1893592;76;20116;-62
2021/11/08 14:18:38;;;;;;;;;;;;;;;16.30;63.20;101588.27;1890596;76;20386;-62
2021/11/08 14:21:07;;;;;;;;;;;;;;;16.23;63.50;101580.20;1884361;76;20117;-61
2021/11/08 14:23:35;;;;;;;;;;;;;;;16.19;62.83;101584.37;1884238;76;20109;-63
2021/11/08 14:26:14;;;;;;;;;;;;;;;16.17;62.66;101578.23;1884304;76;20222;-62
2021/11/08 14:28:43;;;;;;;;;;;;;;;16.14;62.54;101577.56;1884372;76;20124;-61
2021/11/08 14:31:17;;;;;;;;;;;;;;;16.10;62.62;101578.17;1884341;76;20113;-61
2021/11/08 14:33:45;;;;;;;;;;;;;;;16.06;62.50;101577.91;1884355;76;20120;-62